createdAt,value
2023-01-02T00:00:38.021Z,99169.06
2023-01-02T00:03:05.257Z,99172.56
2023-01-02T00:05:32.227Z,99169.59
2023-01-02T00:07:59.170Z,99164.78
2023-01-02T00:10:26.116Z,99172.53
2023-01-02T00:12:53.095Z,99166.16
2023-01-02T00:15:20.122Z,99176.88
2023-01-02T00:17:47.022Z,99169.97
2023-01-02T00:20:15.306Z,99169.72
2023-01-02T00:22:43.541Z,99164.59
2023-01-02T00:25:10.500Z,99164.34
2023-01-02T00:27:37.509Z,99165.81
2023-01-02T00:30:05.686Z,99174.00
2023-01-02T00:32:32.606Z,99180.69
2023-01-02T00:35:00.298Z,99177.81
2023-01-02T00:37:27.263Z,99176.97
2023-01-02T00:39:54.168Z,99171.91
2023-01-02T00:42:21.180Z,99185.16
2023-01-02T00:44:48.091Z,99185.03
2023-01-02T00:47:15.493Z,99174.91
2023-01-02T00:49:42.456Z,99170.03
2023-01-02T00:52:09.467Z,99154.00
2023-01-02T00:54:36.436Z,99173.88
2023-01-02T00:57:03.501Z,99166.25
2023-01-02T00:59:30.495Z,99163.31
2023-01-02T01:01:57.578Z,99164.00
2023-01-02T01:04:24.599Z,99159.88
2023-01-02T01:06:51.543Z,99152.53
2023-01-02T01:09:18.517Z,99156.59
2023-01-02T01:11:45.440Z,99153.38
2023-01-02T01:14:12.408Z,99161.44
2023-01-02T01:16:39.476Z,99158.38
2023-01-02T01:19:06.382Z,99158.09
2023-01-02T01:21:33.537Z,99156.69
2023-01-02T01:24:00.559Z,99156.50
2023-01-02T01:26:27.631Z,99158.16
2023-01-02T01:28:56.247Z,99144.91
2023-01-02T01:31:24.058Z,99140.13
2023-01-02T01:33:51.134Z,99145.53
2023-01-02T01:36:20.964Z,99151.44
2023-01-02T01:38:48.464Z,99147.38
2023-01-02T01:41:24.282Z,99142.56
2023-01-02T01:43:54.374Z,99139.78
2023-01-02T01:46:32.351Z,99135.13
2023-01-02T01:49:08.422Z,99118.97
2023-01-02T01:51:44.240Z,99116.78
2023-01-02T01:54:14.874Z,99129.66
2023-01-02T01:56:47.849Z,99113.78
2023-01-02T01:59:15.376Z,99100.84
2023-01-02T02:01:43.719Z,99095.50
2023-01-02T02:04:11.995Z,99090.16
2023-01-02T02:06:39.753Z,99093.25
2023-01-02T02:09:48.290Z,99088.34
2023-01-02T02:12:35.121Z,99093.53
2023-01-02T02:15:38.333Z,99089.56
2023-01-02T02:18:37.399Z,99092.97
2023-01-02T02:21:45.152Z,99083.00
2023-01-02T02:24:48.783Z,99094.69
2023-01-02T02:28:03.565Z,99094.38
2023-01-02T02:30:40.980Z,99094.38
2023-01-02T02:33:29.215Z,99087.63
2023-01-02T02:36:04.451Z,99083.88
2023-01-02T02:39:11.957Z,99084.72
2023-01-02T02:41:58.787Z,99090.34
2023-01-02T02:45:10.717Z,99094.72
2023-01-02T02:47:49.681Z,99087.53
2023-01-02T02:50:40.313Z,99085.00
2023-01-02T02:53:21.171Z,99083.63
2023-01-02T02:56:01.901Z,99071.06
2023-01-02T02:58:30.284Z,99081.19
2023-01-02T03:01:07.399Z,99052.41
2023-01-02T03:03:34.827Z,99066.19
2023-01-02T03:06:17.135Z,99061.53
2023-01-02T03:09:13.937Z,99069.28
2023-01-02T03:11:46.808Z,99064.91
2023-01-02T03:14:24.926Z,99067.59
2023-01-02T03:17:01.305Z,99065.19
2023-01-02T03:19:38.218Z,99058.72
2023-01-02T03:22:15.426Z,99049.59
2023-01-02T03:24:44.982Z,99050.84
2023-01-02T03:27:22.564Z,99057.03
2023-01-02T03:30:03.801Z,99053.94
2023-01-02T03:32:35.931Z,99063.22
2023-01-02T03:35:08.681Z,99060.66
2023-01-02T03:37:41.010Z,99047.06
2023-01-02T03:40:13.769Z,99050.59
2023-01-02T03:42:50.378Z,99041.72
2023-01-02T03:45:23.409Z,99040.19
2023-01-02T03:47:58.094Z,99017.94
2023-01-02T03:50:41.136Z,99051.00
2023-01-02T03:53:08.294Z,99045.78
2023-01-02T03:55:40.499Z,99026.69
2023-01-02T03:58:13.133Z,99046.78
2023-01-02T04:00:53.384Z,99041.16
2023-01-02T04:03:52.524Z,99017.84
2023-01-02T04:06:32.619Z,99041.28
2023-01-02T04:09:11.076Z,99047.16
2023-01-02T04:11:42.070Z,99043.44
2023-01-02T04:14:19.112Z,99039.25
2023-01-02T04:16:49.692Z,99023.00
2023-01-02T04:19:26.391Z,99020.88
2023-01-02T04:21:58.570Z,99022.41
2023-01-02T04:24:31.593Z,99018.91
2023-01-02T04:27:08.570Z,99024.13
2023-01-02T04:29:35.936Z,99016.53
2023-01-02T04:32:13.889Z,99023.00
2023-01-02T04:34:42.652Z,99008.00
2023-01-02T04:37:09.604Z,99016.84
2023-01-02T04:39:38.188Z,99020.06
2023-01-02T04:42:05.162Z,99017.97
2023-01-02T04:44:32.100Z,99015.56
2023-01-02T04:46:59.003Z,99011.50
2023-01-02T04:49:27.283Z,99017.97
2023-01-02T04:51:54.218Z,99015.72
2023-01-02T04:54:21.168Z,99007.88
2023-01-02T04:56:48.088Z,99003.63
2023-01-02T04:59:15.009Z,99002.06
2023-01-02T05:01:42.093Z,99012.47
2023-01-02T05:04:09.065Z,99006.97
2023-01-02T05:06:36.113Z,99017.41
2023-01-02T05:09:03.162Z,98998.28
2023-01-02T05:11:30.174Z,98998.41
2023-01-02T05:13:59.107Z,99006.00
2023-01-02T05:16:29.519Z,99009.06
2023-01-02T05:18:56.487Z,99009.75
2023-01-02T05:21:41.924Z,99011.03
2023-01-02T05:24:08.901Z,99018.38
2023-01-02T05:26:35.804Z,99017.69
2023-01-02T05:29:03.161Z,99014.84
2023-01-02T05:31:32.731Z,99019.31
2023-01-02T05:33:59.908Z,99013.56
2023-01-02T05:36:27.804Z,99010.88
2023-01-02T05:38:55.452Z,99018.09
2023-01-02T05:41:23.971Z,99012.19
2023-01-02T05:43:50.893Z,99015.84
2023-01-02T05:46:20.280Z,99006.84
2023-01-02T05:48:47.573Z,99021.03
2023-01-02T05:51:17.198Z,99025.94
2023-01-02T05:53:44.167Z,99032.13
2023-01-02T05:56:17.748Z,99033.56
2023-01-02T05:58:46.834Z,98990.06
2023-01-02T06:01:16.491Z,99031.41
2023-01-02T06:03:51.647Z,99042.31
2023-01-02T06:06:23.003Z,99043.91
2023-01-02T06:08:50.367Z,99046.09
2023-01-02T06:11:17.661Z,99048.09
2023-01-02T06:13:44.625Z,99048.97
2023-01-02T06:16:11.698Z,99047.31
2023-01-02T06:18:40.074Z,99045.66
2023-01-02T06:21:16.190Z,99053.44
2023-01-02T06:23:44.161Z,99052.59
2023-01-02T06:26:16.964Z,99046.44
2023-01-02T06:28:45.415Z,99034.94
2023-01-02T06:31:15.625Z,99044.81
2023-01-02T06:33:43.152Z,99044.09
2023-01-02T06:36:12.946Z,99042.03
2023-01-02T06:38:40.278Z,99046.97
2023-01-02T06:41:08.528Z,99046.97
2023-01-02T06:43:37.242Z,99046.09
2023-01-02T06:46:05.782Z,99042.22
2023-01-02T06:48:33.822Z,99047.81
2023-01-02T06:51:04.473Z,99047.94
2023-01-02T06:53:37.281Z,99046.56
2023-01-02T06:56:05.312Z,99028.63
2023-01-02T06:58:36.029Z,99028.56
2023-01-02T07:01:09.182Z,99037.50
2023-01-02T07:03:36.619Z,99042.31
2023-01-02T07:06:09.415Z,99029.97
2023-01-02T07:08:36.964Z,99034.38
2023-01-02T07:11:15.887Z,99033.19
2023-01-02T07:13:43.910Z,99028.56
2023-01-02T07:16:14.201Z,99031.50
2023-01-02T07:18:41.301Z,99023.78
2023-01-02T07:21:10.101Z,99013.25
2023-01-02T07:23:37.241Z,99013.53
2023-01-02T07:26:07.131Z,99024.16
2023-01-02T07:28:35.745Z,99007.34
2023-01-02T07:31:05.059Z,99022.97
2023-01-02T07:33:33.170Z,99023.13
2023-01-02T07:36:01.916Z,99014.00
2023-01-02T07:38:29.213Z,99022.41
2023-01-02T07:40:56.251Z,99016.81
2023-01-02T07:43:23.901Z,99014.03
2023-01-02T07:45:51.245Z,99019.38
2023-01-02T07:48:20.520Z,99003.38
2023-01-02T07:50:48.898Z,99005.88
2023-01-02T07:53:15.800Z,99019.94
2023-01-02T07:55:42.731Z,99009.94
2023-01-02T07:58:09.655Z,99008.41
2023-01-02T08:00:36.609Z,99003.88
2023-01-02T08:03:07.010Z,99000.50
2023-01-02T08:05:34.740Z,99000.63
2023-01-02T08:08:01.623Z,99003.53
2023-01-02T08:10:28.553Z,99002.28
2023-01-02T08:12:57.500Z,98995.66
2023-01-02T08:15:25.914Z,98995.78
2023-01-02T08:17:52.864Z,99004.78
2023-01-02T08:20:19.767Z,98995.16
2023-01-02T08:22:46.677Z,98985.03
2023-01-02T08:25:13.700Z,98991.72
2023-01-02T08:27:40.650Z,98992.03
2023-01-02T08:30:08.610Z,98991.84
2023-01-02T08:32:37.605Z,98994.59
2023-01-02T08:35:06.749Z,98990.19
2023-01-02T08:37:34.246Z,98995.16
2023-01-02T08:40:01.150Z,98983.88
2023-01-02T08:42:30.446Z,98990.38
2023-01-02T08:44:57.381Z,98998.16
2023-01-02T08:47:24.279Z,98994.56
2023-01-02T08:49:51.267Z,98998.38
2023-01-02T08:52:18.231Z,99003.34
2023-01-02T08:54:45.140Z,99001.94
2023-01-02T08:57:12.160Z,99009.56
2023-01-02T08:59:39.100Z,99000.56
2023-01-02T09:02:06.137Z,98993.28
2023-01-02T09:04:33.125Z,98996.50
2023-01-02T09:07:00.096Z,98973.06
2023-01-02T09:09:27.039Z,98981.34
2023-01-02T09:11:53.937Z,98983.91
2023-01-02T09:14:22.241Z,98956.41
2023-01-02T09:16:50.764Z,98972.44
2023-01-02T09:19:18.344Z,98980.03
2023-01-02T09:21:45.444Z,98982.44
2023-01-02T09:24:12.437Z,98984.63
2023-01-02T09:26:41.964Z,98973.41
2023-01-02T09:29:11.073Z,98972.94
2023-01-02T09:31:38.848Z,98972.22
2023-01-02T09:34:06.087Z,98969.72
2023-01-02T09:36:33.278Z,98966.34
2023-01-02T09:39:01.707Z,98931.38
2023-01-02T09:41:40.211Z,98959.56
2023-01-02T09:44:25.687Z,98948.25
2023-01-02T09:47:00.673Z,98956.28
2023-01-02T09:49:55.898Z,98957.28
2023-01-02T09:52:28.309Z,98955.41
2023-01-02T09:54:55.372Z,98946.28
2023-01-02T09:57:29.200Z,98953.31
2023-01-02T10:00:35.654Z,98950.56
2023-01-02T10:03:24.016Z,98949.84
2023-01-02T10:06:09.050Z,98960.28
2023-01-02T10:09:01.098Z,98937.03
2023-01-02T10:11:30.899Z,98953.09
2023-01-02T10:14:20.748Z,98950.03
2023-01-02T10:16:54.511Z,98946.56
2023-01-02T10:19:47.238Z,98932.66
2023-01-02T10:22:19.617Z,98921.94
2023-01-02T10:24:56.135Z,98924.00
2023-01-02T10:27:30.205Z,98910.25
2023-01-02T10:30:15.540Z,98914.47
2023-01-02T10:32:48.412Z,98907.13
2023-01-02T10:35:26.525Z,98905.19
2023-01-02T10:37:56.560Z,98912.34
2023-01-02T10:40:24.488Z,98905.16
2023-01-02T10:42:59.967Z,98899.22
2023-01-02T10:45:27.842Z,98885.25
2023-01-02T10:47:54.741Z,98891.22
2023-01-02T10:50:25.780Z,98893.16
2023-01-02T10:53:05.995Z,98881.16
2023-01-02T10:55:42.785Z,98889.59
2023-01-02T10:58:29.828Z,98872.63
2023-01-02T11:01:18.608Z,98863.88
2023-01-02T11:04:12.313Z,98880.88
2023-01-02T11:07:00.946Z,98880.75
2023-01-02T11:09:30.469Z,98877.97
2023-01-02T11:12:13.340Z,98869.09
2023-01-02T11:14:40.779Z,98860.59
2023-01-02T11:17:13.420Z,98868.59
2023-01-02T11:19:45.573Z,98860.72
2023-01-02T11:22:15.585Z,98859.34
2023-01-02T11:25:03.000Z,98858.19
2023-01-02T11:27:43.945Z,98849.66
2023-01-02T11:30:27.480Z,98849.06
2023-01-02T11:33:14.543Z,98850.19
2023-01-02T11:35:52.879Z,98844.38
2023-01-02T11:38:29.576Z,98853.75
2023-01-02T11:41:02.916Z,98855.69
2023-01-02T11:43:49.494Z,98846.16
2023-01-02T11:46:36.660Z,98847.00
2023-01-02T11:49:09.898Z,98841.84
2023-01-02T11:51:41.010Z,98846.66
2023-01-02T11:54:14.708Z,98842.75
2023-01-02T11:56:45.571Z,98835.50
2023-01-02T11:59:25.341Z,98840.31
2023-01-02T12:02:12.437Z,98839.72
2023-01-02T12:04:39.552Z,98832.88
2023-01-02T12:08:00.263Z,98832.69
2023-01-02T12:10:45.750Z,98820.91
2023-01-02T12:13:54.239Z,98829.25
2023-01-02T12:16:41.177Z,98825.34
2023-01-02T12:19:10.971Z,98824.97
2023-01-02T12:21:45.207Z,98818.97
2023-01-02T12:24:30.171Z,98829.22
2023-01-02T12:27:15.844Z,98828.59
2023-01-02T12:29:48.084Z,98828.19
2023-01-02T12:32:36.064Z,98820.47
2023-01-02T12:35:41.110Z,98828.81
2023-01-02T12:38:10.137Z,98825.09
2023-01-02T12:41:14.270Z,98817.38
2023-01-02T12:43:47.187Z,98825.13
2023-01-02T12:46:46.615Z,98824.91
2023-01-02T12:49:31.895Z,98827.22
2023-01-02T12:52:05.222Z,98820.13
2023-01-02T12:54:50.353Z,98809.31
2023-01-02T12:57:25.883Z,98814.72
2023-01-02T13:00:20.144Z,98802.63
2023-01-02T13:03:48.496Z,98800.56
2023-01-02T13:06:44.883Z,98797.66
2023-01-02T13:09:26.868Z,98799.94
2023-01-02T13:12:15.746Z,98798.06
2023-01-02T13:14:58.119Z,98789.06
2023-01-02T13:17:27.640Z,98811.22
2023-01-02T13:20:15.155Z,98809.31
2023-01-02T13:22:56.037Z,98803.06
2023-01-02T13:25:24.311Z,98811.84
2023-01-02T13:28:00.108Z,98805.16
2023-01-02T13:30:42.447Z,98805.97
2023-01-02T13:33:20.623Z,98808.44
2023-01-02T13:35:47.957Z,98806.78
2023-01-02T13:38:17.098Z,98807.63
2023-01-02T13:40:44.291Z,98778.81
2023-01-02T13:43:20.720Z,98817.00
2023-01-02T13:45:54.061Z,98804.69
2023-01-02T13:48:26.952Z,98815.75
2023-01-02T13:51:20.765Z,98810.53
2023-01-02T13:53:50.465Z,98810.31
2023-01-02T13:56:28.853Z,98808.25
2023-01-02T13:59:42.914Z,98797.59
2023-01-02T14:02:21.597Z,98801.13
2023-01-02T14:04:48.645Z,98796.78
2023-01-02T14:07:27.971Z,98800.97
2023-01-02T14:10:10.056Z,98799.50
2023-01-02T14:13:05.824Z,98803.47
2023-01-02T14:15:38.527Z,98808.09
2023-01-02T14:18:09.662Z,98810.97
2023-01-02T14:20:42.952Z,98809.31
2023-01-02T14:23:23.475Z,98813.69
2023-01-02T14:25:51.163Z,98818.03
2023-01-02T14:28:31.441Z,98828.84
2023-01-02T14:30:59.258Z,98818.81
2023-01-02T14:33:35.187Z,98815.88
2023-01-02T14:36:13.436Z,98828.97
2023-01-02T14:38:51.228Z,98821.59
2023-01-02T14:42:10.789Z,98815.72
2023-01-02T14:44:42.645Z,98829.19
2023-01-02T14:47:37.347Z,98823.91
2023-01-02T14:50:12.653Z,98817.59
2023-01-02T14:52:46.355Z,98825.00
2023-01-02T14:55:21.797Z,98805.25
2023-01-02T14:57:52.341Z,98824.16
2023-01-02T15:00:24.014Z,98833.63
2023-01-02T15:02:56.575Z,98829.78
2023-01-02T15:05:39.305Z,98837.59
2023-01-02T15:08:11.084Z,98795.47
2023-01-02T15:10:58.268Z,98852.44
2023-01-02T15:13:28.533Z,98842.94
2023-01-02T15:15:59.970Z,98841.97
2023-01-02T15:18:31.723Z,98854.97
2023-01-02T15:21:11.044Z,98833.75
2023-01-02T15:23:43.878Z,98838.69
2023-01-02T15:26:34.397Z,98844.59
2023-01-02T15:29:07.384Z,98847.56
2023-01-02T15:31:34.637Z,98831.94
2023-01-02T15:34:01.927Z,98854.38
2023-01-02T15:36:41.645Z,98859.66
2023-01-02T15:39:08.593Z,98851.66
2023-01-02T15:41:43.131Z,98835.00
2023-01-02T15:44:31.331Z,98848.50
2023-01-02T15:46:59.735Z,98865.13
2023-01-02T15:49:27.018Z,98858.63
2023-01-02T15:51:57.663Z,98861.84
2023-01-02T15:54:24.945Z,98854.50
2023-01-02T15:56:51.993Z,98854.88
2023-01-02T15:59:28.437Z,98862.28
2023-01-02T16:01:56.448Z,98841.47
2023-01-02T16:04:28.212Z,98856.72
2023-01-02T16:06:57.249Z,98850.50
2023-01-02T16:09:27.779Z,98844.63
2023-01-02T16:11:57.846Z,98859.59
2023-01-02T16:14:44.666Z,98868.34
2023-01-02T16:17:17.232Z,98866.31
2023-01-02T16:19:48.150Z,98870.50
2023-01-02T16:22:20.699Z,98870.97
2023-01-02T16:24:54.507Z,98864.56
2023-01-02T16:27:30.831Z,98851.78
2023-01-02T16:29:57.776Z,98857.19
2023-01-02T16:32:28.834Z,98862.94
2023-01-02T16:35:02.162Z,98872.06
2023-01-02T16:37:31.766Z,98868.03
2023-01-02T16:40:19.126Z,98870.28
2023-01-02T16:43:08.160Z,98871.47
2023-01-02T16:45:38.433Z,98878.22
2023-01-02T16:48:07.728Z,98854.13
2023-01-02T16:50:41.227Z,98873.94
2023-01-02T16:53:10.914Z,98874.59
2023-01-02T16:55:37.861Z,98885.91
2023-01-02T16:58:06.269Z,98881.06
2023-01-02T17:00:38.353Z,98875.72
2023-01-02T17:03:22.883Z,98865.34
2023-01-02T17:06:01.759Z,98880.00
2023-01-02T17:08:32.315Z,98873.66
2023-01-02T17:11:00.298Z,98868.00
2023-01-02T17:13:28.438Z,98877.59
2023-01-02T17:15:56.091Z,98885.19
2023-01-02T17:18:23.603Z,98879.00
2023-01-02T17:20:50.566Z,98890.44
2023-01-02T17:23:19.708Z,98883.41
2023-01-02T17:25:47.666Z,98893.81
2023-01-02T17:28:15.160Z,98898.91
2023-01-02T17:30:43.778Z,98884.97
2023-01-02T17:33:11.397Z,98877.06
2023-01-02T17:35:38.396Z,98873.72
2023-01-02T17:38:05.376Z,98871.38
2023-01-02T17:40:32.330Z,98868.38
2023-01-02T17:42:59.427Z,98875.06
2023-01-02T17:45:26.737Z,98870.06
2023-01-02T17:48:12.303Z,98857.97
2023-01-02T17:50:40.454Z,98862.00
2023-01-02T17:53:08.069Z,98845.41
2023-01-02T17:55:35.026Z,98880.19
2023-01-02T17:58:02.141Z,98872.63
2023-01-02T18:00:29.273Z,98872.31
2023-01-02T18:02:56.389Z,98871.84
2023-01-02T18:05:23.674Z,98876.88
2023-01-02T18:07:50.844Z,98870.34
2023-01-02T18:10:20.367Z,98849.06
2023-01-02T18:12:49.784Z,98880.66
2023-01-02T18:15:18.811Z,98870.75
2023-01-02T18:17:46.218Z,98888.59
2023-01-02T18:20:18.537Z,98899.50
2023-01-02T18:22:50.074Z,98892.78
2023-01-02T18:25:34.301Z,98892.44
2023-01-02T18:28:24.096Z,98894.47
2023-01-02T18:30:57.615Z,98894.47
2023-01-02T18:33:26.428Z,98885.06
2023-01-02T18:35:59.854Z,98900.34
2023-01-02T18:38:35.258Z,98893.28
2023-01-02T18:41:25.591Z,98890.09
2023-01-02T18:44:00.960Z,98894.78
2023-01-02T18:47:02.777Z,98888.53
2023-01-02T18:49:26.882Z,98894.09
2023-01-02T18:52:15.682Z,98893.22
2023-01-02T18:54:46.341Z,98882.09
2023-01-02T18:57:18.997Z,98887.66
2023-01-02T18:59:52.285Z,98889.66
2023-01-02T19:02:48.500Z,98869.47
2023-01-02T19:05:27.496Z,98891.31
2023-01-02T19:08:13.984Z,98885.09
2023-01-02T19:10:45.032Z,98873.69
2023-01-02T19:13:25.829Z,98888.78
2023-01-02T19:16:02.677Z,98890.13
2023-01-02T19:18:37.704Z,98887.28
2023-01-02T19:21:31.027Z,98886.81
2023-01-02T19:24:05.297Z,98877.41
2023-01-02T19:26:47.399Z,98887.00
2023-01-02T19:29:24.381Z,98899.97
2023-01-02T19:32:10.304Z,98893.06
2023-01-02T19:34:47.474Z,98901.16
2023-01-02T19:37:30.485Z,98908.56
2023-01-02T19:39:59.516Z,98904.53
2023-01-02T19:42:29.103Z,98914.28
2023-01-02T19:44:57.381Z,98915.47
2023-01-02T19:47:33.655Z,98914.28
2023-01-02T19:50:01.540Z,98906.94
2023-01-02T19:52:29.953Z,98921.34
2023-01-02T19:54:58.412Z,98916.31
2023-01-02T19:57:26.249Z,98922.31
2023-01-02T19:59:55.966Z,98931.22
2023-01-02T20:02:26.560Z,98926.69
2023-01-02T20:04:55.658Z,98933.56
2023-01-02T20:07:24.712Z,98949.16
2023-01-02T20:09:53.061Z,98947.44
2023-01-02T20:12:30.360Z,98964.47
2023-01-02T20:15:04.955Z,98949.06
2023-01-02T20:17:33.129Z,98935.00
2023-01-02T20:20:00.504Z,98940.72
2023-01-02T20:22:28.529Z,98934.72
2023-01-02T20:24:56.403Z,98934.72
2023-01-02T20:27:25.660Z,98939.63
2023-01-02T20:29:55.388Z,98934.09
2023-01-02T20:32:23.414Z,98935.09
2023-01-02T20:34:51.656Z,98938.13
2023-01-02T20:37:21.695Z,98944.19
2023-01-02T20:39:50.268Z,98952.25
2023-01-02T20:42:17.449Z,98942.34
2023-01-02T20:44:44.963Z,98932.75
2023-01-02T20:47:12.257Z,98944.69
2023-01-02T20:49:39.969Z,98948.72
2023-01-02T20:52:07.631Z,98941.00
2023-01-02T20:54:34.737Z,98937.47
2023-01-02T20:57:02.476Z,98944.50
2023-01-02T20:59:29.430Z,98944.84
2023-01-02T21:01:56.537Z,98954.41
2023-01-02T21:04:30.642Z,98956.94
2023-01-02T21:07:01.324Z,98957.25
2023-01-02T21:09:28.538Z,98965.34
2023-01-02T21:11:55.562Z,98964.31
2023-01-02T21:14:22.514Z,98968.69
2023-01-02T21:16:49.476Z,98966.00
2023-01-02T21:19:16.737Z,98961.44
2023-01-02T21:21:43.668Z,98970.19
2023-01-02T21:24:10.613Z,98974.56
2023-01-02T21:26:37.534Z,98964.47
2023-01-02T21:29:04.620Z,98973.53
2023-01-02T21:31:31.732Z,98980.75
2023-01-02T21:33:58.815Z,98981.59
2023-01-02T21:36:25.777Z,98983.47
2023-01-02T21:38:52.736Z,98984.16
2023-01-02T21:41:38.302Z,98988.69
2023-01-02T21:44:05.475Z,98993.38
2023-01-02T21:46:32.671Z,98985.53
2023-01-02T21:48:59.646Z,98981.16
2023-01-02T21:51:32.394Z,98990.22
2023-01-02T21:54:00.286Z,98996.28
2023-01-02T21:56:27.567Z,98992.56
2023-01-02T21:58:55.391Z,98997.09
2023-01-02T22:01:22.523Z,99011.22
2023-01-02T22:03:49.535Z,99003.81
2023-01-02T22:06:18.501Z,99009.72
2023-01-02T22:08:48.232Z,98984.16
2023-01-02T22:11:33.821Z,99003.97
2023-01-02T22:14:01.318Z,99005.66
2023-01-02T22:16:28.489Z,99008.34
2023-01-02T22:18:55.535Z,99014.38
2023-01-02T22:21:22.547Z,98986.00
2023-01-02T22:23:49.523Z,99011.03
2023-01-02T22:26:18.882Z,99007.34
2023-01-02T22:28:45.984Z,99012.88
2023-01-02T22:31:13.019Z,99010.34
2023-01-02T22:33:41.290Z,99009.53
2023-01-02T22:36:09.550Z,98991.56
2023-01-02T22:38:43.907Z,99012.03
2023-01-02T22:41:22.112Z,99013.41
2023-01-02T22:43:49.118Z,99022.81
2023-01-02T22:46:24.358Z,99035.56
2023-01-02T22:48:52.459Z,99044.97
2023-01-02T22:51:25.937Z,99038.25
2023-01-02T22:54:03.752Z,99036.56
2023-01-02T22:56:31.812Z,99033.88
2023-01-02T22:59:01.584Z,99041.94
2023-01-02T23:01:33.907Z,99043.97
2023-01-02T23:04:01.488Z,99046.66
2023-01-02T23:06:29.193Z,99043.97
2023-01-02T23:08:56.466Z,99046.47
2023-01-02T23:11:24.177Z,99054.03
2023-01-02T23:13:56.276Z,99041.78
2023-01-02T23:16:42.541Z,99051.72
2023-01-02T23:19:15.666Z,99044.97
2023-01-02T23:21:45.764Z,99046.97
2023-01-02T23:24:16.297Z,99056.03
2023-01-02T23:26:46.212Z,99063.94
2023-01-02T23:29:14.466Z,99059.75
2023-01-02T23:31:45.998Z,99036.72
2023-01-02T23:34:15.337Z,99053.84
2023-01-02T23:36:43.045Z,99057.88
2023-01-02T23:39:15.653Z,99055.03
2023-01-02T23:41:44.180Z,99062.94
2023-01-02T23:44:12.733Z,99059.56
2023-01-02T23:46:40.683Z,99070.47
2023-01-02T23:49:09.281Z,99070.66
2023-01-02T23:51:37.392Z,99083.25
2023-01-02T23:54:05.830Z,99073.50
2023-01-02T23:56:36.991Z,99046.63
2023-01-02T23:59:07.128Z,99051.50
